createdAt,value
2022-10-23T00:01:52.212Z,8.28
2022-10-23T00:04:23.592Z,8.28
2022-10-23T00:06:52.714Z,8.10
2022-10-23T00:09:25.951Z,7.80
2022-10-23T00:11:55.316Z,8.10
2022-10-23T00:14:26.014Z,7.95
2022-10-23T00:16:55.056Z,7.76
2022-10-23T00:19:23.737Z,7.45
2022-10-23T00:21:52.943Z,7.66
2022-10-23T00:24:21.587Z,7.49
2022-10-23T00:26:53.449Z,7.40
2022-10-23T00:29:22.818Z,7.47
2022-10-23T00:31:51.578Z,7.37
2022-10-23T00:34:21.206Z,7.35
2022-10-23T00:36:49.813Z,7.25
2022-10-23T00:39:18.716Z,7.05
2022-10-23T00:41:47.553Z,6.97
2022-10-23T00:44:19.711Z,7.06
2022-10-23T00:46:49.033Z,6.84
2022-10-23T00:49:18.554Z,6.87
2022-10-23T00:51:58.425Z,6.99
2022-10-23T00:54:32.557Z,6.98
2022-10-23T00:57:04.724Z,6.85
2022-10-23T00:59:34.592Z,6.94
2022-10-23T01:02:03.342Z,7.07
2022-10-23T01:04:33.275Z,6.94
2022-10-23T01:07:04.950Z,7.00
2022-10-23T01:09:51.404Z,6.84
2022-10-23T01:12:36.196Z,6.90
2022-10-23T01:15:46.443Z,6.90
2022-10-23T01:18:46.051Z,6.70
2022-10-23T01:21:39.063Z,6.90
2022-10-23T01:24:39.973Z,6.94
2022-10-23T01:27:17.781Z,7.35
2022-10-23T01:29:52.411Z,7.83
2022-10-23T01:32:40.186Z,8.25
2022-10-23T01:35:41.887Z,8.87
2022-10-23T01:38:17.913Z,9.34
2022-10-23T01:41:12.518Z,9.87
2022-10-23T01:44:10.488Z,10.36
2022-10-23T01:46:41.030Z,10.57
2022-10-23T01:49:14.282Z,11.00
2022-10-23T01:51:47.898Z,11.31
2022-10-23T01:54:20.730Z,11.80
2022-10-23T01:56:52.849Z,12.08
2022-10-23T01:59:33.729Z,12.46
2022-10-23T02:02:05.964Z,12.79
2022-10-23T02:04:42.687Z,13.26
2022-10-23T02:07:11.504Z,13.43
2022-10-23T02:09:40.806Z,13.69
2022-10-23T02:12:19.054Z,14.01
2022-10-23T02:14:58.843Z,14.42
2022-10-23T02:17:59.554Z,14.82
2022-10-23T02:20:30.870Z,15.01
2022-10-23T02:23:21.148Z,15.33
2022-10-23T02:26:08.467Z,15.59
2022-10-23T02:28:50.770Z,15.78
2022-10-23T02:31:23.572Z,16.31
2022-10-23T02:33:53.022Z,16.40
2022-10-23T02:36:21.758Z,16.32
2022-10-23T02:38:50.941Z,16.32
2022-10-23T02:41:38.264Z,16.88
2022-10-23T02:44:39.537Z,17.16
2022-10-23T02:47:32.435Z,17.06
2022-10-23T02:50:24.500Z,17.41
2022-10-23T02:53:00.058Z,17.93
2022-10-23T02:55:49.883Z,17.89
2022-10-23T02:58:43.289Z,17.75
2022-10-23T03:01:23.669Z,18.00
2022-10-23T03:04:00.664Z,18.06
2022-10-23T03:06:29.662Z,18.25
2022-10-23T03:09:08.683Z,18.38
2022-10-23T03:11:37.820Z,18.06
2022-10-23T03:14:06.510Z,18.43
2022-10-23T03:16:35.356Z,18.36
2022-10-23T03:19:04.123Z,18.61
2022-10-23T03:21:32.967Z,18.63
2022-10-23T03:24:03.336Z,18.64
2022-10-23T03:26:40.193Z,18.66
2022-10-23T03:29:09.349Z,19.11
2022-10-23T03:31:43.770Z,19.37
2022-10-23T03:34:12.899Z,19.75
2022-10-23T03:36:42.745Z,19.72
2022-10-23T03:39:12.543Z,19.72
2022-10-23T03:41:41.384Z,19.66
2022-10-23T03:44:11.358Z,19.60
2022-10-23T03:46:45.854Z,19.38
2022-10-23T03:49:14.831Z,19.06
2022-10-23T03:51:52.727Z,19.00
2022-10-23T03:54:28.314Z,18.88
2022-10-23T03:56:57.733Z,18.82
2022-10-23T03:59:28.509Z,18.45
2022-10-23T04:01:57.520Z,18.00
2022-10-23T04:04:26.891Z,17.93
2022-10-23T04:06:55.853Z,17.70
2022-10-23T04:09:25.433Z,17.40
2022-10-23T04:11:56.771Z,17.22
2022-10-23T04:14:29.218Z,17.11
2022-10-23T04:16:58.500Z,16.93
2022-10-23T04:19:29.434Z,16.83
2022-10-23T04:21:58.830Z,16.64
2022-10-23T04:24:28.328Z,16.45
2022-10-23T04:26:57.795Z,16.44
2022-10-23T04:29:32.652Z,16.33
2022-10-23T04:32:01.690Z,16.48
2022-10-23T04:34:30.319Z,16.43
2022-10-23T04:36:59.389Z,16.39
2022-10-23T04:39:28.473Z,16.27
2022-10-23T04:41:57.342Z,16.25
2022-10-23T04:44:27.178Z,16.27
2022-10-23T04:46:56.070Z,16.62
2022-10-23T04:49:25.915Z,16.51
2022-10-23T04:52:13.001Z,16.29
2022-10-23T04:55:05.022Z,16.50
2022-10-23T04:57:43.281Z,16.35
2022-10-23T05:00:16.199Z,16.71
2022-10-23T05:02:54.837Z,16.89
2022-10-23T05:05:25.261Z,16.97
2022-10-23T05:07:54.237Z,17.06
2022-10-23T05:10:28.776Z,17.63
2022-10-23T05:13:07.092Z,17.93
2022-10-23T05:15:36.202Z,18.02
2022-10-23T05:18:15.178Z,18.48
2022-10-23T05:20:46.953Z,18.76
2022-10-23T05:23:19.523Z,19.39
2022-10-23T05:25:56.175Z,19.94
2022-10-23T05:28:25.356Z,20.19
2022-10-23T05:30:54.207Z,20.45
2022-10-23T05:33:28.377Z,21.05
2022-10-23T05:35:58.195Z,21.65
2022-10-23T05:38:29.037Z,22.12
2022-10-23T05:40:58.311Z,22.24
2022-10-23T05:43:28.175Z,22.86
2022-10-23T05:46:11.334Z,23.11
2022-10-23T05:49:09.541Z,23.33
2022-10-23T05:51:50.467Z,23.77
2022-10-23T05:54:34.618Z,24.07
2022-10-23T05:57:22.127Z,24.41
2022-10-23T05:59:53.361Z,24.60
2022-10-23T06:02:42.203Z,24.51
2022-10-23T06:05:33.605Z,24.51
2022-10-23T06:08:20.672Z,25.07
2022-10-23T06:10:51.974Z,25.49
2022-10-23T06:13:21.407Z,25.28
2022-10-23T06:15:50.106Z,25.45
2022-10-23T06:18:25.900Z,25.86
2022-10-23T06:21:02.637Z,25.85
2022-10-23T06:23:33.450Z,25.96
2022-10-23T06:26:13.401Z,26.19
2022-10-23T06:29:02.614Z,26.20
2022-10-23T06:31:31.903Z,26.08
2022-10-23T06:34:01.359Z,26.18
2022-10-23T06:36:32.076Z,26.30
2022-10-23T06:39:09.360Z,26.65
2022-10-23T06:41:58.631Z,26.57
2022-10-23T06:44:53.775Z,26.92
2022-10-23T06:47:46.049Z,27.13
2022-10-23T06:50:53.220Z,27.25
2022-10-23T06:53:30.986Z,27.11
2022-10-23T06:56:10.012Z,27.52
2022-10-23T06:58:40.342Z,27.27
2022-10-23T07:01:17.612Z,26.96
2022-10-23T07:03:49.081Z,26.96
2022-10-23T07:06:22.722Z,26.64
2022-10-23T07:08:52.098Z,27.54
2022-10-23T07:11:43.887Z,27.47
2022-10-23T07:14:13.750Z,27.25
2022-10-23T07:16:43.963Z,27.63
2022-10-23T07:19:12.717Z,27.60
2022-10-23T07:22:05.658Z,28.16
2022-10-23T07:24:50.495Z,27.94
2022-10-23T07:27:39.463Z,27.98
2022-10-23T07:30:11.391Z,28.16
2022-10-23T07:32:47.195Z,27.87
2022-10-23T07:35:28.107Z,27.98
2022-10-23T07:38:05.196Z,28.01
2022-10-23T07:40:38.620Z,27.13
2022-10-23T07:43:10.735Z,27.78
2022-10-23T07:45:40.808Z,28.47
2022-10-23T07:48:18.171Z,27.88
2022-10-23T07:51:02.462Z,28.04
2022-10-23T07:53:32.600Z,27.71
2022-10-23T07:56:16.074Z,28.21
2022-10-23T07:59:03.083Z,27.49
2022-10-23T08:01:38.173Z,27.70
2022-10-23T08:04:08.067Z,27.92
2022-10-23T08:06:42.179Z,28.45
2022-10-23T08:09:11.310Z,28.15
2022-10-23T08:11:43.085Z,27.91
2022-10-23T08:14:16.745Z,27.27
2022-10-23T08:16:47.606Z,27.09
2022-10-23T08:19:19.194Z,27.78
2022-10-23T08:21:50.999Z,27.70
2022-10-23T08:24:20.408Z,27.52
2022-10-23T08:26:51.715Z,27.62
2022-10-23T08:29:24.707Z,27.57
2022-10-23T08:31:58.367Z,27.20
2022-10-23T08:34:32.444Z,27.39
2022-10-23T08:37:04.563Z,26.75
2022-10-23T08:39:36.124Z,27.01
2022-10-23T08:42:25.091Z,27.09
2022-10-23T08:45:30.651Z,26.83
2022-10-23T08:48:31.721Z,27.04
2022-10-23T08:51:48.389Z,27.13
2022-10-23T08:54:40.646Z,26.36
2022-10-23T08:57:18.886Z,25.99
2022-10-23T09:00:01.535Z,25.77
2022-10-23T09:02:48.860Z,25.97
2022-10-23T09:05:48.899Z,26.12
2022-10-23T09:08:17.949Z,25.75
2022-10-23T09:11:30.884Z,25.63
2022-10-23T09:14:29.734Z,24.89
2022-10-23T09:17:28.471Z,24.11
2022-10-23T09:20:01.756Z,24.25
2022-10-23T09:22:30.747Z,24.14
2022-10-23T09:24:59.365Z,24.08
2022-10-23T09:27:28.730Z,24.31
2022-10-23T09:29:57.703Z,23.92
2022-10-23T09:32:38.783Z,23.89
2022-10-23T09:35:08.723Z,23.41
2022-10-23T09:37:46.369Z,22.44
2022-10-23T09:40:44.489Z,23.05
2022-10-23T09:43:24.464Z,23.12
2022-10-23T09:46:02.442Z,23.19
2022-10-23T09:48:34.110Z,23.69
2022-10-23T09:51:20.230Z,22.69
2022-10-23T09:53:56.160Z,23.21
2022-10-23T09:56:25.112Z,23.17
2022-10-23T09:59:06.905Z,22.71
2022-10-23T10:01:46.336Z,23.16
2022-10-23T10:04:39.612Z,23.15
2022-10-23T10:07:21.246Z,23.28
2022-10-23T10:09:51.199Z,23.03
2022-10-23T10:13:14.820Z,23.29
2022-10-23T10:15:54.648Z,22.61
2022-10-23T10:18:38.355Z,22.56
2022-10-23T10:21:20.002Z,22.72
2022-10-23T10:23:57.448Z,22.67
2022-10-23T10:26:53.671Z,22.63
2022-10-23T10:29:57.880Z,22.45
2022-10-23T10:32:58.365Z,22.52
2022-10-23T10:36:00.718Z,22.44
2022-10-23T10:38:47.862Z,22.31
2022-10-23T10:41:46.318Z,22.20
2022-10-23T10:44:30.787Z,21.89
2022-10-23T10:47:20.169Z,22.18
2022-10-23T10:50:17.518Z,22.26
2022-10-23T10:53:43.759Z,21.97
2022-10-23T10:56:20.045Z,21.46
2022-10-23T10:59:05.989Z,21.53
2022-10-23T11:01:55.423Z,20.95
2022-10-23T11:04:30.640Z,20.91
2022-10-23T11:07:05.732Z,20.17
2022-10-23T11:09:34.790Z,19.91
2022-10-23T11:12:03.679Z,19.22
2022-10-23T11:14:35.755Z,18.35
2022-10-23T11:17:17.985Z,17.85
2022-10-23T11:19:53.566Z,17.21
2022-10-23T11:22:29.649Z,16.79
2022-10-23T11:25:17.053Z,16.96
2022-10-23T11:28:10.773Z,16.81
2022-10-23T11:30:43.582Z,16.28
2022-10-23T11:33:30.512Z,15.88
2022-10-23T11:36:20.806Z,15.91
2022-10-23T11:38:53.201Z,15.73
2022-10-23T11:41:29.450Z,15.49
2022-10-23T11:44:06.610Z,15.62
2022-10-23T11:46:40.273Z,15.47
2022-10-23T11:49:22.020Z,15.55
2022-10-23T11:52:02.350Z,15.39
2022-10-23T11:54:31.518Z,15.01
2022-10-23T11:57:10.555Z,14.98
2022-10-23T11:59:55.727Z,14.41
2022-10-23T12:02:44.037Z,14.66
2022-10-23T12:05:37.163Z,14.48
2022-10-23T12:08:10.165Z,14.06
2022-10-23T12:10:47.999Z,13.98
2022-10-23T12:13:38.950Z,13.79
2022-10-23T12:16:08.586Z,13.44
2022-10-23T12:18:52.970Z,13.30
2022-10-23T12:21:30.387Z,13.25
2022-10-23T12:24:11.229Z,12.67
2022-10-23T12:27:12.885Z,12.75
2022-10-23T12:30:12.254Z,12.88
2022-10-23T12:32:41.482Z,12.46
2022-10-23T12:35:33.776Z,11.94
2022-10-23T12:38:20.115Z,11.75
2022-10-23T12:41:02.229Z,11.68
2022-10-23T12:43:37.316Z,11.58
2022-10-23T12:46:28.089Z,11.47
2022-10-23T12:48:58.015Z,11.39
2022-10-23T12:51:36.807Z,11.25
2022-10-23T12:54:17.146Z,10.94
2022-10-23T12:56:47.109Z,10.87
2022-10-23T12:59:19.631Z,10.77
2022-10-23T13:01:52.581Z,10.73
2022-10-23T13:04:31.404Z,10.64
2022-10-23T13:07:03.096Z,10.44
2022-10-23T13:09:43.144Z,10.36
2022-10-23T13:12:28.128Z,10.37
2022-10-23T13:15:17.293Z,10.12
2022-10-23T13:18:03.429Z,10.13
2022-10-23T13:20:38.884Z,9.83
2022-10-23T13:23:32.146Z,10.29
2022-10-23T13:26:07.388Z,10.02
2022-10-23T13:28:44.652Z,10.03
2022-10-23T13:31:13.418Z,9.95
2022-10-23T13:33:44.934Z,9.89
2022-10-23T13:36:18.219Z,9.81
2022-10-23T13:39:03.750Z,9.77
2022-10-23T13:41:40.275Z,9.69
2022-10-23T13:44:11.650Z,9.34
2022-10-23T13:46:41.263Z,9.34
2022-10-23T13:49:10.583Z,9.15
2022-10-23T13:51:57.889Z,9.28
2022-10-23T13:56:58.668Z,9.29
2022-10-23T13:59:27.494Z,9.29
2022-10-23T14:01:56.570Z,8.91
2022-10-23T14:04:25.558Z,9.14
2022-10-23T14:06:59.415Z,9.00
2022-10-23T14:09:28.795Z,9.24
2022-10-23T14:11:57.696Z,9.07
2022-10-23T14:14:27.313Z,9.17
2022-10-23T14:16:56.741Z,8.85
2022-10-23T14:19:25.554Z,8.83
2022-10-23T14:21:54.309Z,8.52
2022-10-23T14:24:23.822Z,9.07
2022-10-23T14:26:52.554Z,9.06
2022-10-23T14:29:24.111Z,9.06
2022-10-23T14:31:53.712Z,9.15
2022-10-23T14:34:22.353Z,9.05
2022-10-23T14:37:03.762Z,9.07
2022-10-23T14:39:37.278Z,8.95
2022-10-23T14:42:06.033Z,8.84
2022-10-23T14:44:34.909Z,8.68
2022-10-23T14:47:04.243Z,8.73
2022-10-23T14:49:34.288Z,8.77
2022-10-23T14:52:03.227Z,8.99
2022-10-23T14:54:34.047Z,9.08
2022-10-23T14:57:03.347Z,8.97
2022-10-23T14:59:32.105Z,9.05
2022-10-23T15:02:01.204Z,8.82
2022-10-23T15:04:29.908Z,9.13
2022-10-23T15:06:58.981Z,9.07
2022-10-23T15:09:27.758Z,9.05
2022-10-23T15:11:56.843Z,8.99
2022-10-23T15:14:25.785Z,8.92
2022-10-23T15:16:54.829Z,8.78
2022-10-23T15:19:23.587Z,8.74
2022-10-23T15:21:53.516Z,8.84
2022-10-23T15:24:22.771Z,8.97
2022-10-23T15:26:53.269Z,8.85
2022-10-23T15:29:22.363Z,8.53
2022-10-23T15:31:58.581Z,8.63
2022-10-23T15:34:30.105Z,8.72
2022-10-23T15:37:00.241Z,8.56
2022-10-23T15:39:34.655Z,8.68
2022-10-23T15:42:05.997Z,8.71
2022-10-23T15:44:36.021Z,8.80
2022-10-23T15:47:05.204Z,8.69
2022-10-23T15:49:34.406Z,8.60
2022-10-23T15:52:04.746Z,8.62
2022-10-23T15:54:33.856Z,8.45
2022-10-23T15:57:03.369Z,8.52
2022-10-23T15:59:33.379Z,8.62
2022-10-23T16:02:02.844Z,8.58
2022-10-23T16:04:34.077Z,8.54
2022-10-23T16:07:02.780Z,8.52
2022-10-23T16:09:31.739Z,8.44
2022-10-23T16:12:00.351Z,8.56
2022-10-23T16:14:29.379Z,8.62
2022-10-23T16:16:58.336Z,8.35
2022-10-23T16:19:27.278Z,8.33
2022-10-23T16:21:55.988Z,8.19
2022-10-23T16:24:24.868Z,8.26
2022-10-23T16:26:54.182Z,8.25
2022-10-23T16:29:24.532Z,8.30
2022-10-23T16:31:55.017Z,8.38
2022-10-23T16:34:24.305Z,8.41
2022-10-23T16:36:53.430Z,8.66
2022-10-23T16:39:22.966Z,8.84
2022-10-23T16:42:10.437Z,8.84
2022-10-23T16:44:59.590Z,8.74
2022-10-23T16:47:31.680Z,8.87
2022-10-23T16:50:00.597Z,8.78
2022-10-23T16:52:29.932Z,8.84
2022-10-23T16:54:58.775Z,8.83
2022-10-23T16:57:30.614Z,8.85
2022-10-23T16:59:59.418Z,8.99
2022-10-23T17:02:28.430Z,9.20
2022-10-23T17:04:57.527Z,9.12
2022-10-23T17:07:26.125Z,9.08
2022-10-23T17:09:55.052Z,9.23
2022-10-23T17:12:24.258Z,9.25
2022-10-23T17:14:53.161Z,9.27
2022-10-23T17:17:21.912Z,9.38
2022-10-23T17:19:50.836Z,9.22
2022-10-23T17:22:19.569Z,9.35
2022-10-23T17:24:51.444Z,9.48
2022-10-23T17:27:23.235Z,9.32
2022-10-23T17:29:51.908Z,9.66
2022-10-23T17:34:50.273Z,9.55
2022-10-23T17:37:19.107Z,9.43
2022-10-23T17:39:48.076Z,9.47
2022-10-23T17:42:17.030Z,9.13
2022-10-23T17:44:46.009Z,9.11
2022-10-23T17:47:15.115Z,8.99
2022-10-23T17:49:45.463Z,8.87
2022-10-23T17:52:15.991Z,9.02
2022-10-23T17:54:45.528Z,8.45
2022-10-23T17:57:14.398Z,9.05
2022-10-23T17:59:43.498Z,9.12
2022-10-23T18:02:14.984Z,9.02
2022-10-23T18:04:43.987Z,8.81
2022-10-23T18:07:13.925Z,8.76
2022-10-23T18:09:43.139Z,8.52
2022-10-23T18:12:11.855Z,8.23
2022-10-23T18:14:41.192Z,8.43
2022-10-23T18:17:09.846Z,8.33
2022-10-23T18:19:38.704Z,8.20
2022-10-23T18:22:07.432Z,8.29
2022-10-23T18:24:37.436Z,8.33
2022-10-23T18:27:06.109Z,8.47
2022-10-23T18:29:34.994Z,8.58
2022-10-23T18:32:03.799Z,8.61
2022-10-23T18:34:33.757Z,8.77
2022-10-23T18:37:02.697Z,8.92
2022-10-23T18:39:31.575Z,8.91
2022-10-23T18:42:00.534Z,8.92
2022-10-23T18:44:29.939Z,8.97
2022-10-23T18:47:00.738Z,9.11
2022-10-23T18:49:29.869Z,8.88
2022-10-23T18:51:59.429Z,8.80
2022-10-23T18:54:28.607Z,8.77
2022-10-23T18:56:57.389Z,8.84
2022-10-23T18:59:26.400Z,8.93
2022-10-23T19:01:55.547Z,8.92
2022-10-23T19:04:24.515Z,8.80
2022-10-23T19:06:53.564Z,8.95
2022-10-23T19:09:22.787Z,8.86
2022-10-23T19:11:51.455Z,8.90
2022-10-23T19:14:20.278Z,8.82
2022-10-23T19:17:10.948Z,9.05
2022-10-23T19:19:47.934Z,8.99
2022-10-23T19:22:18.135Z,9.02
2022-10-23T19:24:58.865Z,9.01
2022-10-23T19:27:29.117Z,8.93
2022-10-23T19:30:04.227Z,8.93
2022-10-23T19:32:33.195Z,8.85
2022-10-23T19:35:02.236Z,8.76
2022-10-23T19:37:31.204Z,8.55
2022-10-23T19:39:59.971Z,8.46
2022-10-23T19:42:28.815Z,8.28
2022-10-23T19:44:57.462Z,8.17
2022-10-23T19:47:26.612Z,8.14
2022-10-23T19:49:55.269Z,7.87
2022-10-23T19:52:24.342Z,7.84
2022-10-23T19:54:53.089Z,8.13
2022-10-23T19:57:22.722Z,8.17
2022-10-23T19:59:53.138Z,8.16
2022-10-23T20:02:22.103Z,8.29
2022-10-23T20:04:51.297Z,8.10
2022-10-23T20:07:20.114Z,8.22
2022-10-23T20:09:48.916Z,7.96
2022-10-23T20:12:17.662Z,8.08
2022-10-23T20:14:46.452Z,8.17
2022-10-23T20:17:15.307Z,8.10
2022-10-23T20:19:45.549Z,8.00
2022-10-23T20:22:14.459Z,7.95
2022-10-23T20:24:43.256Z,7.88
2022-10-23T20:27:14.781Z,7.98
2022-10-23T20:29:45.689Z,7.81
2022-10-23T20:32:16.460Z,7.82
2022-10-23T20:34:45.421Z,7.78
2022-10-23T20:37:14.270Z,7.63
2022-10-23T20:39:43.806Z,7.75
2022-10-23T20:42:12.452Z,7.55
2022-10-23T20:44:41.596Z,7.46
2022-10-23T20:47:10.247Z,7.36
2022-10-23T20:49:39.512Z,7.38
2022-10-23T20:52:08.162Z,7.44
2022-10-23T20:54:39.023Z,7.35
2022-10-23T20:57:07.749Z,7.11
2022-10-23T20:59:36.703Z,7.24
2022-10-23T21:02:05.581Z,7.14
2022-10-23T21:04:34.745Z,7.13
2022-10-23T21:07:11.566Z,6.85
2022-10-23T21:09:41.297Z,7.15
2022-10-23T21:12:10.318Z,7.01
2022-10-23T21:14:39.259Z,6.79
2022-10-23T21:17:09.476Z,6.88
2022-10-23T21:19:40.058Z,7.10
2022-10-23T21:22:08.817Z,7.00
2022-10-23T21:24:37.642Z,6.99
2022-10-23T21:27:06.645Z,7.13
2022-10-23T21:29:35.527Z,7.12
2022-10-23T21:32:04.636Z,6.80
2022-10-23T21:34:33.520Z,7.14
2022-10-23T21:37:18.603Z,7.05
2022-10-23T21:39:47.816Z,7.05
2022-10-23T21:42:16.525Z,7.06
2022-10-23T21:44:45.429Z,7.01
2022-10-23T21:47:14.771Z,7.04
2022-10-23T21:49:43.625Z,7.06
2022-10-23T21:52:14.000Z,6.95
2022-10-23T21:54:45.243Z,7.40
2022-10-23T21:57:15.551Z,7.48
2022-10-23T21:59:45.106Z,7.16
2022-10-23T22:02:14.128Z,7.38
2022-10-23T22:04:43.108Z,7.22
2022-10-23T22:07:15.716Z,7.09
2022-10-23T22:09:45.189Z,7.44
2022-10-23T22:12:14.090Z,7.75
2022-10-23T22:14:43.503Z,7.58
2022-10-23T22:17:12.163Z,7.58
2022-10-23T22:19:40.962Z,7.68
2022-10-23T22:22:09.862Z,7.87
2022-10-23T22:24:38.735Z,8.10
2022-10-23T22:27:07.350Z,8.39
2022-10-23T22:29:37.056Z,8.38
2022-10-23T22:32:05.972Z,8.33
2022-10-23T22:34:51.728Z,8.63
2022-10-23T22:37:21.867Z,8.80
2022-10-23T22:39:54.182Z,8.49
2022-10-23T22:42:23.275Z,8.68
2022-10-23T22:44:51.849Z,9.01
2022-10-23T22:47:20.868Z,8.96
2022-10-23T22:49:49.487Z,8.92
2022-10-23T22:52:18.461Z,8.98
2022-10-23T22:54:48.617Z,8.98
2022-10-23T22:57:17.853Z,8.97
2022-10-23T22:59:46.485Z,8.86
2022-10-23T23:02:15.472Z,9.00
2022-10-23T23:04:44.799Z,9.00
2022-10-23T23:07:14.214Z,9.24
2022-10-23T23:09:45.809Z,9.28
2022-10-23T23:12:15.982Z,9.11
2022-10-23T23:14:44.888Z,8.96
2022-10-23T23:17:13.742Z,8.93
2022-10-23T23:19:42.729Z,9.01
2022-10-23T23:22:11.382Z,8.83
2022-10-23T23:24:40.460Z,8.92
2022-10-23T23:27:11.108Z,8.72
2022-10-23T23:29:40.035Z,8.97
2022-10-23T23:32:08.729Z,9.00
2022-10-23T23:34:37.672Z,9.00
2022-10-23T23:37:06.298Z,9.00
2022-10-23T23:39:35.160Z,9.00
2022-10-23T23:42:03.804Z,8.81
2022-10-23T23:44:32.757Z,9.05
2022-10-23T23:47:01.531Z,9.06
2022-10-23T23:49:30.335Z,8.97
2022-10-23T23:51:59.120Z,8.71
2022-10-23T23:54:28.113Z,8.92
2022-10-23T23:57:06.628Z,8.78
2022-10-23T23:59:42.634Z,8.63
